Allendale, California
Current Conditions -  °F | °C
As of 7:53 AM on Friday 24 Oct 2014 (Local Time) from KVCB Reporting Station
Clear Clear  
Wind Chill: 50°   Ceiling: Unl
Heat Index: 50°   Visibility: 10mi
Dew Point: 45°   Wind: 0mph
Humidity: 83%   Direction: NA
Pressure: 29.99"   Gusts: NA
Location:  38.4195°N, 122.026°W
Report Text: KVCB 241453Z AUTO 00000KT 10SM CLR 10/07 A2999 RMK AO2 SLP153 T01000072 53002 TSNO
Loading
Personal Weather Stations






























Interactive Weather Map
Tropical Storm Tracking
New forecast layout! Learn more

10-Day Weather Forecast

Advertisements
Track Severe Weather on mobile